Time;durP1;ratioP1;P1;durP2;ratioP2;P2;SDS_P1;SDS_P2;PMS_P1;PMS_P2;Temp;Humidity;BMP_temperature;BMP_pressure;BME280_temperature;BME280_humidity;BME280_pressure;Samples;Min_cycle;Max_cycle;Signal;HPM_P1;HPM_P2
2021/04/02 00:00:14;;;;;;;14.27;7.30;;;;;;;;;;5065785;28;20076;-81
2021/04/02 00:02:41;;;;;;;14.25;6.72;;;;;;;;;;5069770;28;20051;-81
2021/04/02 00:05:07;;;;;;;18.35;7.20;;;;;;;;;;5068247;28;20045;-81
2021/04/02 00:07:37;;;;;;;11.98;6.75;;;;;;;;;;5065082;28;20057;-81
2021/04/02 00:10:05;;;;;;;14.05;5.80;;;;;;;;;;5041004;28;20049;-81
2021/04/02 00:12:43;;;;;;;16.88;6.72;;;;;;;;;;5072376;28;20351;-81
2021/04/02 00:15:10;;;;;;;13.18;6.95;;;;;;;;;;5059543;28;20064;-81
2021/04/02 00:17:38;;;;;;;11.15;6.22;;;;;;;;;;5074671;28;20204;-82
2021/04/02 00:20:07;;;;;;;11.88;6.75;;;;;;;;;;5059834;28;20045;-82
2021/04/02 00:22:33;;;;;;;13.85;6.97;;;;;;;;;;5040340;28;20049;-82
2021/04/02 00:25:06;;;;;;;10.00;6.50;;;;;;;;;;5058272;28;20048;-82
2021/04/02 00:27:32;;;;;;;14.27;7.25;;;;;;;;;;5040553;28;20402;-82
2021/04/02 00:29:58;;;;;;;12.90;7.32;;;;;;;;;;5058688;28;20435;-81
2021/04/02 00:32:26;;;;;;;10.43;7.35;;;;;;;;;;5057955;28;20079;-81
2021/04/02 00:34:53;;;;;;;16.88;7.43;;;;;;;;;;5059005;28;20521;-82
2021/04/02 00:37:19;;;;;;;16.33;7.65;;;;;;;;;;5058452;28;20130;-81
2021/04/02 00:39:45;;;;;;;16.83;8.18;;;;;;;;;;5058925;28;20086;-82
2021/04/02 00:42:11;;;;;;;12.90;7.32;;;;;;;;;;5040903;28;20106;-81
2021/04/02 00:44:38;;;;;;;19.38;7.53;;;;;;;;;;5058957;28;20053;-81
2021/04/02 00:47:04;;;;;;;14.20;7.00;;;;;;;;;;5058039;28;20052;-82
2021/04/02 00:49:33;;;;;;;13.75;7.72;;;;;;;;;;5040644;28;20445;-82
2021/04/02 00:51:59;;;;;;;16.38;6.93;;;;;;;;;;5038694;28;20340;-81
2021/04/02 00:54:25;;;;;;;14.13;8.30;;;;;;;;;;5040048;28;20045;-81
2021/04/02 00:56:51;;;;;;;13.43;8.25;;;;;;;;;;5058735;28;20036;-81
2021/04/02 00:59:20;;;;;;;17.70;8.70;;;;;;;;;;5073693;28;20106;-81
2021/04/02 01:01:46;;;;;;;16.02;8.18;;;;;;;;;;5040685;28;20057;-82
2021/04/02 01:04:12;;;;;;;16.88;8.65;;;;;;;;;;5059843;28;20467;-82
2021/04/02 01:06:40;;;;;;;14.48;8.13;;;;;;;;;;5066583;28;20332;-81
2021/04/02 01:09:06;;;;;;;11.45;7.55;;;;;;;;;;5059062;28;20049;-82
2021/04/02 01:11:32;;;;;;;18.10;8.85;;;;;;;;;;5062822;28;20064;-82
2021/04/02 01:13:59;;;;;;;15.77;7.50;;;;;;;;;;5059134;28;20103;-82
2021/04/02 01:16:29;;;;;;;11.88;7.70;;;;;;;;;;5059835;28;20049;-81
2021/04/02 01:18:57;;;;;;;17.27;8.07;;;;;;;;;;5057938;28;20048;-82
2021/04/02 01:21:25;;;;;;;14.30;7.40;;;;;;;;;;5057734;28;20080;-80
2021/04/02 01:24:00;;;;;;;16.00;7.57;;;;;;;;;;5040036;28;20049;-81
2021/04/02 01:26:48;;;;;;;13.32;7.20;;;;;;;;;;5059228;28;20060;-80
2021/04/02 01:29:21;;;;;;;10.35;6.65;;;;;;;;;;5039679;28;20591;-81
2021/04/02 01:31:49;;;;;;;19.40;8.18;;;;;;;;;;5042709;28;20056;-80
2021/04/02 01:34:19;;;;;;;15.55;8.18;;;;;;;;;;5044253;28;20065;-82
2021/04/02 01:36:48;;;;;;;11.07;7.25;;;;;;;;;;5041414;28;20113;-81
2021/04/02 01:39:15;;;;;;;15.43;7.68;;;;;;;;;;5040728;28;20040;-81
2021/04/02 01:41:43;;;;;;;14.73;8.10;;;;;;;;;;5041173;28;20059;-81
2021/04/02 01:44:09;;;;;;;11.50;6.57;;;;;;;;;;5041003;28;20049;-81
2021/04/02 01:46:36;;;;;;;13.75;6.07;;;;;;;;;;5041034;28;20414;-81
2021/04/02 01:49:12;;;;;;;13.90;6.38;;;;;;;;;;5074595;28;20049;-81
2021/04/02 01:51:39;;;;;;;8.45;6.05;;;;;;;;;;5052050;28;20037;-81
2021/04/02 01:54:06;;;;;;;10.35;6.30;;;;;;;;;;5073388;28;20084;-81
2021/04/02 01:56:36;;;;;;;12.15;6.25;;;;;;;;;;5048609;28;20056;-81
2021/04/02 01:59:03;;;;;;;11.10;6.45;;;;;;;;;;5066165;28;20242;-83
2021/04/02 02:01:35;;;;;;;9.27;5.82;;;;;;;;;;5032052;28;20085;-84
2021/04/02 02:04:05;;;;;;;12.15;5.90;;;;;;;;;;5039972;28;20088;-83
2021/04/02 02:06:31;;;;;;;26.55;6.65;;;;;;;;;;5023306;28;20044;-83
2021/04/02 02:09:01;;;;;;;34.33;7.25;;;;;;;;;;5049856;28;20056;-83
2021/04/02 02:11:28;;;;;;;12.02;6.45;;;;;;;;;;5033020;28;20057;-83
2021/04/02 02:14:11;;;;;;;20.88;6.40;;;;;;;;;;5028755;28;20045;-83
2021/04/02 02:16:39;;;;;;;8.73;5.80;;;;;;;;;;5023456;28;20060;-83
2021/04/02 02:19:08;;;;;;;40.03;7.40;;;;;;;;;;5041158;28;20053;-83
2021/04/02 02:21:35;;;;;;;11.63;6.35;;;;;;;;;;5023273;28;20081;-83
2021/04/02 02:24:06;;;;;;;18.83;6.53;;;;;;;;;;5039205;28;20598;-83
2021/04/02 02:26:38;;;;;;;36.30;7.32;;;;;;;;;;5041205;28;20401;-83
2021/04/02 02:29:04;;;;;;;10.90;6.32;;;;;;;;;;5035283;28;20131;-83
2021/04/02 02:31:33;;;;;;;24.35;6.55;;;;;;;;;;5035211;28;20056;-83
2021/04/02 02:34:00;;;;;;;10.02;6.00;;;;;;;;;;5042866;28;20052;-83
2021/04/02 02:36:26;;;;;;;10.82;5.57;;;;;;;;;;5041946;28;20056;-83
2021/04/02 02:38:59;;;;;;;10.13;5.85;;;;;;;;;;5026583;28;20041;-83
2021/04/02 02:41:31;;;;;;;12.48;5.90;;;;;;;;;;5036870;28;20057;-83
2021/04/02 02:44:00;;;;;;;9.95;5.28;;;;;;;;;;5043931;28;20115;-83
2021/04/02 02:46:32;;;;;;;30.15;7.70;;;;;;;;;;5024839;28;20064;-83
2021/04/02 02:49:34;;;;;;;18.73;7.18;;;;;;;;;;5023484;28;20050;-83
2021/04/02 02:52:00;;;;;;;16.73;8.07;;;;;;;;;;5016232;28;20050;-83
2021/04/02 02:54:30;;;;;;;18.90;8.50;;;;;;;;;;5039773;28;20220;-83
2021/04/02 02:56:57;;;;;;;19.42;8.80;;;;;;;;;;5038981;28;20111;-83
2021/04/02 02:59:30;;;;;;;16.77;7.70;;;;;;;;;;5059031;28;20049;-84
2021/04/02 03:01:58;;;;;;;40.70;9.23;;;;;;;;;;5060213;28;20068;-83
2021/04/02 03:04:25;;;;;;;27.70;10.27;;;;;;;;;;5079612;28;20321;-83
2021/04/02 03:06:52;;;;;;;128.48;11.77;;;;;;;;;;5079212;28;20067;-83
2021/04/02 03:09:18;;;;;;;24.38;10.07;;;;;;;;;;5062388;28;20098;-83
2021/04/02 03:11:45;;;;;;;14.63;8.75;;;;;;;;;;5062147;28;20063;-84
2021/04/02 03:14:18;;;;;;;16.98;9.10;;;;;;;;;;5080320;28;20340;-83
2021/04/02 03:16:48;;;;;;;119.90;14.18;;;;;;;;;;5082806;28;20056;-83
2021/04/02 03:19:16;;;;;;;47.95;11.60;;;;;;;;;;5083415;28;20068;-83
2021/04/02 03:21:45;;;;;;;16.85;10.52;;;;;;;;;;5082958;28;20219;-83
2021/04/02 03:24:18;;;;;;;30.20;11.32;;;;;;;;;;5082611;28;20063;-83
2021/04/02 03:26:50;;;;;;;89.15;13.27;;;;;;;;;;5082838;28;20239;-83
2021/04/02 03:29:18;;;;;;;37.80;11.85;;;;;;;;;;5064832;28;20122;-84
2021/04/02 03:31:44;;;;;;;18.40;10.00;;;;;;;;;;5082435;28;20091;-84
2021/04/02 03:34:12;;;;;;;88.38;13.20;;;;;;;;;;5082002;28;20053;-84
2021/04/02 03:36:43;;;;;;;45.20;11.00;;;;;;;;;;5065868;28;20519;-85
2021/04/02 03:39:15;;;;;;;89.32;11.38;;;;;;;;;;5066447;28;20062;-82
2021/04/02 03:41:42;;;;;;;54.13;10.27;;;;;;;;;;5083662;28;20110;-83
2021/04/02 03:44:10;;;;;;;44.38;9.43;;;;;;;;;;5091730;28;20040;-83
2021/04/02 03:46:53;;;;;;;19.10;9.23;;;;;;;;;;5078125;28;20036;-83
2021/04/02 03:49:22;;;;;;;27.13;10.70;;;;;;;;;;5095016;28;20045;-83
2021/04/02 03:51:49;;;;;;;29.05;9.93;;;;;;;;;;5094417;28;20052;-83
2021/04/02 03:54:16;;;;;;;21.88;10.07;;;;;;;;;;5095165;28;20056;-82
2021/04/02 03:56:48;;;;;;;17.55;8.65;;;;;;;;;;5094976;28;20070;-84
2021/04/02 03:59:15;;;;;;;16.35;7.85;;;;;;;;;;5077421;28;20096;-82
2021/04/02 04:01:43;;;;;;;13.93;6.18;;;;;;;;;;5077285;28;20048;-83
2021/04/02 04:04:13;;;;;;;14.75;5.15;;;;;;;;;;5094605;28;20056;-83
2021/04/02 04:06:42;;;;;;;16.98;5.05;;;;;;;;;;5064277;28;20472;-82
2021/04/02 04:09:11;;;;;;;26.25;7.03;;;;;;;;;;5064110;28;20082;-82
2021/04/02 04:11:40;;;;;;;22.48;5.68;;;;;;;;;;5083149;28;20044;-82
2021/04/02 04:14:07;;;;;;;11.85;5.47;;;;;;;;;;5080815;28;20071;-82
2021/04/02 04:16:39;;;;;;;9.80;5.63;;;;;;;;;;5081507;28;20048;-83
2021/04/02 04:19:06;;;;;;;25.80;6.80;;;;;;;;;;5065331;28;20118;-83
2021/04/02 04:21:41;;;;;;;20.20;5.88;;;;;;;;;;5086286;28;20048;-82
2021/04/02 04:24:12;;;;;;;17.50;6.10;;;;;;;;;;5069131;28;20083;-83
2021/04/02 04:26:42;;;;;;;25.95;7.93;;;;;;;;;;5081646;28;20057;-82
2021/04/02 04:29:09;;;;;;;18.45;7.05;;;;;;;;;;5082154;28;20124;-83
2021/04/02 04:31:36;;;;;;;19.52;7.03;;;;;;;;;;5063761;28;20459;-82
2021/04/02 04:34:05;;;;;;;20.15;7.85;;;;;;;;;;5063730;28;20066;-83
2021/04/02 04:36:35;;;;;;;16.13;6.65;;;;;;;;;;5062939;28;20067;-83
2021/04/02 04:39:06;;;;;;;15.38;6.18;;;;;;;;;;5080278;28;20048;-82
2021/04/02 04:41:35;;;;;;;12.70;6.03;;;;;;;;;;5067628;28;20067;-82
2021/04/02 04:44:12;;;;;;;22.92;6.88;;;;;;;;;;5090524;28;20063;-82
2021/04/02 04:46:38;;;;;;;20.45;7.07;;;;;;;;;;5090778;28;20102;-82
2021/04/02 04:49:05;;;;;;;19.20;5.53;;;;;;;;;;5082879;28;20044;-83
2021/04/02 04:51:32;;;;;;;19.00;6.35;;;;;;;;;;5080911;28;20083;-83
2021/04/02 04:54:04;;;;;;;18.63;6.18;;;;;;;;;;5079830;28;20090;-83
2021/04/02 04:56:31;;;;;;;17.13;5.20;;;;;;;;;;5073367;28;20067;-82
2021/04/02 04:59:01;;;;;;;12.38;5.05;;;;;;;;;;5086496;28;20044;-83
2021/04/02 05:01:33;;;;;;;16.73;4.88;;;;;;;;;;5063675;28;20060;-83
2021/04/02 05:04:01;;;;;;;18.42;5.93;;;;;;;;;;5091256;28;20182;-83
2021/04/02 05:06:33;;;;;;;13.05;4.28;;;;;;;;;;5071622;28;20049;-83
2021/04/02 05:09:15;;;;;;;19.00;5.60;;;;;;;;;;5069720;28;20048;-82
2021/04/02 05:11:47;;;;;;;19.75;4.68;;;;;;;;;;5064294;28;20055;-82
2021/04/02 05:14:20;;;;;;;21.50;5.07;;;;;;;;;;5063087;28;20094;-83
2021/04/02 05:16:49;;;;;;;15.60;3.90;;;;;;;;;;5060410;28;20052;-82
2021/04/02 05:19:16;;;;;;;19.77;4.68;;;;;;;;;;5060629;28;20256;-82
2021/04/02 05:21:52;;;;;;;18.58;4.38;;;;;;;;;;5077620;28;20323;-82
2021/04/02 05:24:20;;;;;;;24.23;6.13;;;;;;;;;;5077476;28;20114;-82
2021/04/02 05:26:46;;;;;;;22.23;6.60;;;;;;;;;;5077980;28;20424;-83
2021/04/02 05:29:13;;;;;;;23.50;5.05;;;;;;;;;;5078262;28;20048;-82
2021/04/02 05:31:44;;;;;;;19.88;4.30;;;;;;;;;;5078596;28;20451;-83
2021/04/02 05:34:14;;;;;;;19.08;4.40;;;;;;;;;;5061419;28;20394;-82
2021/04/02 05:36:47;;;;;;;14.30;3.20;;;;;;;;;;5060786;28;20102;-83
2021/04/02 05:39:13;;;;;;;18.00;4.13;;;;;;;;;;5078275;28;20048;-84
2021/04/02 05:42:02;;;;;;;13.85;4.25;;;;;;;;;;5077306;28;20439;-82
2021/04/02 05:44:47;;;;;;;15.27;3.00;;;;;;;;;;5077475;28;20044;-84
2021/04/02 05:47:14;;;;;;;20.27;3.13;;;;;;;;;;5076963;28;20414;-81
2021/04/02 05:49:43;;;;;;;19.35;3.10;;;;;;;;;;5080302;28;20106;-83
2021/04/02 05:52:10;;;;;;;17.58;2.70;;;;;;;;;;5074500;28;20048;-83
2021/04/02 05:54:37;;;;;;;15.25;3.42;;;;;;;;;;5072574;28;20055;-83
2021/04/02 05:57:03;;;;;;;14.15;2.88;;;;;;;;;;5079655;28;20052;-83
2021/04/02 05:59:29;;;;;;;10.43;3.67;;;;;;;;;;5078047;28;20178;-84
2021/04/02 06:01:55;;;;;;;16.60;3.60;;;;;;;;;;5069268;28;20074;-83
2021/04/02 06:04:24;;;;;;;13.80;3.03;;;;;;;;;;5088861;28;20335;-83
2021/04/02 06:06:52;;;;;;;17.40;4.55;;;;;;;;;;5089561;28;20099;-83
2021/04/02 06:09:20;;;;;;;17.50;4.18;;;;;;;;;;5090592;28;20044;-83
2021/04/02 06:11:47;;;;;;;15.75;4.20;;;;;;;;;;5083563;28;20045;-83
2021/04/02 06:14:16;;;;;;;15.45;3.17;;;;;;;;;;5077866;28;20051;-83
2021/04/02 06:16:49;;;;;;;13.05;4.55;;;;;;;;;;5076481;28;20056;-83
2021/04/02 06:19:18;;;;;;;14.30;3.78;;;;;;;;;;5077359;28;20095;-83
2021/04/02 06:21:47;;;;;;;19.08;3.80;;;;;;;;;;5056017;28;20055;-81
2021/04/02 06:24:16;;;;;;;12.98;3.05;;;;;;;;;;5038860;28;20080;-84
2021/04/02 06:27:03;;;;;;;13.35;2.65;;;;;;;;;;5038534;28;20045;-84
2021/04/02 06:29:29;;;;;;;12.40;2.92;;;;;;;;;;5053580;28;20372;-81
2021/04/02 06:31:56;;;;;;;7.18;2.53;;;;;;;;;;5052821;28;20205;-83
2021/04/02 06:34:28;;;;;;;22.38;3.05;;;;;;;;;;5052847;28;20252;-81
2021/04/02 06:37:03;;;;;;;16.48;2.90;;;;;;;;;;5053906;28;20049;-83
2021/04/02 06:39:35;;;;;;;14.70;3.10;;;;;;;;;;5038230;28;20049;-83
2021/04/02 06:42:03;;;;;;;9.55;2.42;;;;;;;;;;5055563;28;20033;-83
2021/04/02 06:44:31;;;;;;;18.73;3.20;;;;;;;;;;5039577;28;20045;-83
2021/04/02 06:46:58;;;;;;;15.32;3.88;;;;;;;;;;5056383;28;20048;-83
2021/04/02 06:49:24;;;;;;;15.07;4.15;;;;;;;;;;5043507;28;20239;-83
2021/04/02 06:51:52;;;;;;;12.35;4.38;;;;;;;;;;5038573;28;20345;-83
2021/04/02 06:54:27;;;;;;;16.67;3.22;;;;;;;;;;5055867;28;20049;-83
2021/04/02 06:57:02;;;;;;;9.55;2.80;;;;;;;;;;5040816;28;20084;-83
2021/04/02 06:59:30;;;;;;;16.08;3.72;;;;;;;;;;5063196;28;20053;-83
2021/04/02 07:01:57;;;;;;;20.20;3.40;;;;;;;;;;5078562;28;20068;-83
2021/04/02 07:04:24;;;;;;;12.18;2.88;;;;;;;;;;5062448;28;20049;-83
2021/04/02 07:06:52;;;;;;;18.77;3.28;;;;;;;;;;5064068;28;20062;-83
2021/04/02 07:09:19;;;;;;;21.90;2.58;;;;;;;;;;5079046;28;20063;-83
2021/04/02 07:11:47;;;;;;;16.35;3.22;;;;;;;;;;5063452;28;20360;-83
2021/04/02 07:14:15;;;;;;;11.77;2.10;;;;;;;;;;5079979;28;20048;-83
2021/04/02 07:16:43;;;;;;;10.23;2.85;;;;;;;;;;5077948;28;20052;-82
2021/04/02 07:19:09;;;;;;;20.00;3.65;;;;;;;;;;5060025;28;20071;-82
2021/04/02 07:21:35;;;;;;;15.18;3.28;;;;;;;;;;5078814;28;20052;-82
2021/04/02 07:24:11;;;;;;;10.98;2.67;;;;;;;;;;5078606;28;20044;-82
2021/04/02 07:26:37;;;;;;;16.08;2.90;;;;;;;;;;5061992;28;20059;-82
2021/04/02 07:29:04;;;;;;;19.65;2.85;;;;;;;;;;5062205;28;20060;-82
2021/04/02 07:31:33;;;;;;;9.25;2.53;;;;;;;;;;5080203;28;20078;-82
2021/04/02 07:34:02;;;;;;;19.55;3.00;;;;;;;;;;5079202;28;20060;-82
2021/04/02 07:36:28;;;;;;;12.10;2.47;;;;;;;;;;5062118;28;20063;-82
2021/04/02 07:38:54;;;;;;;14.82;2.60;;;;;;;;;;5060932;28;20296;-82
2021/04/02 07:41:26;;;;;;;15.40;2.40;;;;;;;;;;5078338;28;20137;-82
2021/04/02 07:43:54;;;;;;;14.85;2.63;;;;;;;;;;5079233;28;20262;-82
2021/04/02 07:46:25;;;;;;;11.85;2.20;;;;;;;;;;5078417;28;20140;-81
2021/04/02 07:48:59;;;;;;;15.25;2.78;;;;;;;;;;5062687;28;20455;-82
2021/04/02 07:51:38;;;;;;;18.00;3.80;;;;;;;;;;5056622;28;20044;-82
2021/04/02 07:54:13;;;;;;;15.27;2.55;;;;;;;;;;5074723;28;20052;-82
2021/04/02 07:56:45;;;;;;;8.70;3.15;;;;;;;;;;5056922;28;20057;-82
2021/04/02 07:59:11;;;;;;;18.50;4.50;;;;;;;;;;5073724;28;20052;-83
2021/04/02 08:01:37;;;;;;;23.05;3.63;;;;;;;;;;5037003;28;20288;-82
2021/04/02 08:04:07;;;;;;;13.52;3.75;;;;;;;;;;5033331;28;20314;-83
2021/04/02 08:06:37;;;;;;;8.52;2.33;;;;;;;;;;5018351;28;20050;-82
2021/04/02 08:09:10;;;;;;;13.65;2.55;;;;;;;;;;5020432;28;20057;-83
2021/04/02 08:11:42;;;;;;;18.20;3.00;;;;;;;;;;5037126;28;20053;-82
2021/04/02 08:14:30;;;;;;;18.40;2.67;;;;;;;;;;5020621;28;20063;-82
2021/04/02 08:16:56;;;;;;;12.02;2.72;;;;;;;;;;5037293;28;20054;-83
2021/04/02 08:19:33;;;;;;;17.40;2.40;;;;;;;;;;5037306;28;20057;-81
2021/04/02 08:22:04;;;;;;;12.25;2.83;;;;;;;;;;5036469;28;20220;-81
2021/04/02 08:24:31;;;;;;;11.27;2.95;;;;;;;;;;5037222;28;20046;-81
2021/04/02 08:27:05;;;;;;;15.20;2.58;;;;;;;;;;5036704;28;20061;-81
2021/04/02 08:29:31;;;;;;;24.80;4.38;;;;;;;;;;5035518;28;20444;-82
2021/04/02 08:32:02;;;;;;;19.73;3.65;;;;;;;;;;5035143;28;20091;-82
2021/04/02 08:34:29;;;;;;;11.10;2.42;;;;;;;;;;5038985;28;20069;-82
2021/04/02 08:37:04;;;;;;;11.35;2.15;;;;;;;;;;5039555;28;20049;-82
2021/04/02 08:39:39;;;;;;;16.25;2.20;;;;;;;;;;5056736;28;20117;-82
2021/04/02 08:42:09;;;;;;;13.18;2.05;;;;;;;;;;5054796;28;20144;-82
2021/04/02 08:44:35;;;;;;;22.90;2.42;;;;;;;;;;5036278;28;20079;-82
2021/04/02 08:47:05;;;;;;;20.85;2.60;;;;;;;;;;5037602;28;20052;-82
2021/04/02 08:49:39;;;;;;;18.92;3.13;;;;;;;;;;5052651;28;20044;-82
2021/04/02 08:52:06;;;;;;;22.02;3.42;;;;;;;;;;5052316;28;20049;-83
2021/04/02 08:54:32;;;;;;;20.73;4.20;;;;;;;;;;5052886;28;20110;-83
2021/04/02 08:57:04;;;;;;;21.30;3.10;;;;;;;;;;5037210;28;20059;-83
2021/04/02 08:59:38;;;;;;;12.30;1.67;;;;;;;;;;5039019;28;20041;-82
2021/04/02 09:02:04;;;;;;;22.63;2.72;;;;;;;;;;5083504;28;20063;-83
2021/04/02 09:04:33;;;;;;;15.98;2.83;;;;;;;;;;5083359;28;20083;-83
2021/04/02 09:07:03;;;;;;;19.05;2.95;;;;;;;;;;5061351;28;20045;-83
2021/04/02 09:09:32;;;;;;;18.85;3.20;;;;;;;;;;5063256;28;20110;-83
2021/04/02 09:12:06;;;;;;;23.52;2.75;;;;;;;;;;5079624;28;20048;-83
2021/04/02 09:14:43;;;;;;;12.20;2.03;;;;;;;;;;5067622;28;20103;-83
2021/04/02 09:17:23;;;;;;;11.77;2.53;;;;;;;;;;5070850;28;20119;-83
2021/04/02 09:19:52;;;;;;;16.42;1.92;;;;;;;;;;5083259;28;20352;-83
2021/04/02 09:22:21;;;;;;;16.52;2.00;;;;;;;;;;5076203;28;20044;-83
2021/04/02 09:24:50;;;;;;;16.08;2.13;;;;;;;;;;5074761;28;20048;-83
2021/04/02 09:27:20;;;;;;;12.32;2.17;;;;;;;;;;5063446;28;20134;-83
2021/04/02 09:29:47;;;;;;;7.72;1.83;;;;;;;;;;5103359;28;20052;-83
2021/04/02 09:32:13;;;;;;;19.02;2.55;;;;;;;;;;5077996;28;20127;-82
2021/04/02 09:34:44;;;;;;;14.15;3.33;;;;;;;;;;5093470;28;20395;-82
2021/04/02 09:37:10;;;;;;;20.58;3.13;;;;;;;;;;5094471;28;20080;-83
2021/04/02 09:39:37;;;;;;;17.00;2.92;;;;;;;;;;5096915;28;20052;-83
2021/04/02 09:42:04;;;;;;;20.10;2.80;;;;;;;;;;5077555;28;20063;-83
2021/04/02 09:44:38;;;;;;;15.38;2.92;;;;;;;;;;5077416;28;20358;-83
2021/04/02 09:47:12;;;;;;;17.15;2.67;;;;;;;;;;5094639;28;20059;-83
2021/04/02 09:49:41;;;;;;;18.08;2.50;;;;;;;;;;5094760;28;20343;-83
2021/04/02 09:52:10;;;;;;;13.70;2.33;;;;;;;;;;5059806;28;20040;-82
2021/04/02 09:54:40;;;;;;;15.88;3.67;;;;;;;;;;5095968;28;20044;-82
2021/04/02 09:57:07;;;;;;;20.60;3.67;;;;;;;;;;5079338;28;20040;-83
2021/04/02 09:59:34;;;;;;;22.83;4.68;;;;;;;;;;5087232;28;20048;-83
2021/04/02 10:02:07;;;;;;;16.60;4.05;;;;;;;;;;5068119;28;20405;-83
2021/04/02 10:04:33;;;;;;;22.30;3.88;;;;;;;;;;5075144;28;20383;-83
2021/04/02 10:07:01;;;;;;;16.27;4.28;;;;;;;;;;5074495;28;20052;-83
2021/04/02 10:09:32;;;;;;;17.88;3.10;;;;;;;;;;5077093;28;20045;-83
2021/04/02 10:12:02;;;;;;;20.77;2.80;;;;;;;;;;5051465;28;20080;-83
2021/04/02 10:14:30;;;;;;;17.77;2.33;;;;;;;;;;5068455;28;20053;-83
2021/04/02 10:16:56;;;;;;;22.23;2.97;;;;;;;;;;5053322;28;20075;-83
2021/04/02 10:19:28;;;;;;;17.33;3.10;;;;;;;;;;5064512;28;20052;-82
2021/04/02 10:21:54;;;;;;;26.05;3.60;;;;;;;;;;5054588;28;20165;-83
2021/04/02 10:24:21;;;;;;;21.60;3.83;;;;;;;;;;5055617;28;20158;-83
2021/04/02 10:26:48;;;;;;;19.33;3.72;;;;;;;;;;5074268;28;20086;-83
2021/04/02 10:29:16;;;;;;;14.88;2.63;;;;;;;;;;5059621;28;20057;-82
2021/04/02 10:31:42;;;;;;;20.45;3.75;;;;;;;;;;5052546;28;20079;-83
2021/04/02 10:34:11;;;;;;;22.85;3.45;;;;;;;;;;5032979;28;20068;-82
2021/04/02 10:36:37;;;;;;;24.17;3.58;;;;;;;;;;5034885;28;20053;-83
2021/04/02 10:39:08;;;;;;;17.45;3.60;;;;;;;;;;5034677;28;20294;-83
2021/04/02 10:41:38;;;;;;;14.38;3.75;;;;;;;;;;5033367;28;20111;-83
2021/04/02 10:44:04;;;;;;;21.33;4.07;;;;;;;;;;5050168;28;20052;-83
2021/04/02 10:46:44;;;;;;;19.70;3.60;;;;;;;;;;5033461;28;20092;-83
2021/04/02 10:49:10;;;;;;;22.15;2.90;;;;;;;;;;5049397;28;20057;-81
2021/04/02 10:51:40;;;;;;;16.90;4.45;;;;;;;;;;5048216;28;20140;-82
2021/04/02 10:54:06;;;;;;;47.00;8.85;;;;;;;;;;5035507;28;20068;-82
2021/04/02 10:56:35;;;;;;;16.35;3.38;;;;;;;;;;5050508;28;20045;-83
2021/04/02 10:59:04;;;;;;;22.88;3.92;;;;;;;;;;5051789;28;20372;-82
2021/04/02 11:01:35;;;;;;;12.23;3.10;;;;;;;;;;5064018;28;20057;-83
2021/04/02 11:04:01;;;;;;;17.55;3.55;;;;;;;;;;5070987;28;20102;-82
2021/04/02 11:06:27;;;;;;;21.38;4.15;;;;;;;;;;5053823;28;20328;-82
2021/04/02 11:08:53;;;;;;;23.75;3.67;;;;;;;;;;5056814;28;20052;-82
2021/04/02 11:11:28;;;;;;;17.55;3.35;;;;;;;;;;5063757;28;20049;-82
2021/04/02 11:13:54;;;;;;;15.73;2.90;;;;;;;;;;5048373;28;20040;-82
2021/04/02 11:16:22;;;;;;;10.48;2.80;;;;;;;;;;5070652;28;20060;-82
2021/04/02 11:18:53;;;;;;;14.65;3.88;;;;;;;;;;5070401;28;20048;-82
2021/04/02 11:21:23;;;;;;;21.13;2.92;;;;;;;;;;5049653;28;20566;-82
2021/04/02 11:23:49;;;;;;;18.00;3.35;;;;;;;;;;5050865;28;20056;-82
2021/04/02 11:26:16;;;;;;;20.33;3.25;;;;;;;;;;5051220;28;20240;-82
2021/04/02 11:28:42;;;;;;;16.48;2.95;;;;;;;;;;5051886;28;20053;-82
2021/04/02 11:31:08;;;;;;;9.60;2.40;;;;;;;;;;5034693;28;20048;-82
2021/04/02 11:33:37;;;;;;;8.52;2.25;;;;;;;;;;5053340;28;20080;-82
2021/04/02 11:36:05;;;;;;;21.98;2.88;;;;;;;;;;5070317;28;20100;-82
2021/04/02 11:38:37;;;;;;;16.65;2.60;;;;;;;;;;5079743;28;20361;-82
2021/04/02 11:41:03;;;;;;;10.32;1.90;;;;;;;;;;5079022;28;20063;-82
2021/04/02 11:43:29;;;;;;;10.48;2.50;;;;;;;;;;5096685;28;20048;-83
2021/04/02 11:45:55;;;;;;;10.80;2.65;;;;;;;;;;5077719;28;20048;-82
2021/04/02 11:48:24;;;;;;;11.15;2.88;;;;;;;;;;5057311;28;20070;-83
2021/04/02 11:51:00;;;;;;;19.90;2.95;;;;;;;;;;5076069;28;20285;-82
2021/04/02 11:53:30;;;;;;;15.23;3.42;;;;;;;;;;5057885;28;20063;-82
2021/04/02 11:55:59;;;;;;;15.13;2.65;;;;;;;;;;5056111;28;20353;-82
2021/04/02 11:58:25;;;;;;;22.00;3.72;;;;;;;;;;5072933;28;20058;-82
2021/04/02 12:00:52;;;;;;;14.55;2.42;;;;;;;;;;5056640;28;20057;-82
2021/04/02 12:03:22;;;;;;;8.35;2.40;;;;;;;;;;5075816;28;20236;-83
2021/04/02 12:05:48;;;;;;;10.43;2.60;;;;;;;;;;5055873;28;20240;-83
2021/04/02 12:08:18;;;;;;;12.45;2.13;;;;;;;;;;5064141;28;20056;-83
2021/04/02 12:10:47;;;;;;;8.80;1.73;;;;;;;;;;5083948;28;20059;-81
2021/04/02 12:13:17;;;;;;;10.13;2.65;;;;;;;;;;5066869;28;20098;-83
2021/04/02 12:15:46;;;;;;;13.50;2.40;;;;;;;;;;5080604;28;20059;-83
2021/04/02 12:18:12;;;;;;;12.25;2.50;;;;;;;;;;5061152;28;20698;-83
2021/04/02 12:20:38;;;;;;;13.95;2.90;;;;;;;;;;5064490;28;20064;-82
2021/04/02 12:23:06;;;;;;;8.75;2.30;;;;;;;;;;5047475;28;20055;-82
2021/04/02 12:25:32;;;;;;;13.95;3.15;;;;;;;;;;5063586;28;20052;-82
2021/04/02 12:28:01;;;;;;;16.25;2.65;;;;;;;;;;5062035;28;20059;-83
2021/04/02 12:30:31;;;;;;;12.43;2.40;;;;;;;;;;5058255;28;20143;-83
2021/04/02 12:32:59;;;;;;;21.35;2.83;;;;;;;;;;5056389;28;20045;-82
2021/04/02 12:35:25;;;;;;;9.57;1.77;;;;;;;;;;5075573;28;20055;-83
2021/04/02 12:37:52;;;;;;;6.90;1.67;;;;;;;;;;5085171;28;20053;-81
2021/04/02 12:40:20;;;;;;;7.55;2.15;;;;;;;;;;5083950;28;20451;-77
2021/04/02 12:42:46;;;;;;;15.10;3.08;;;;;;;;;;5066092;28;20063;-78
2021/04/02 12:45:12;;;;;;;7.10;2.08;;;;;;;;;;5041801;28;20189;-78
2021/04/02 12:47:39;;;;;;;12.65;2.63;;;;;;;;;;5069173;28;20417;-79
2021/04/02 12:50:10;;;;;;;7.50;1.52;;;;;;;;;;5065193;28;20049;-79
2021/04/02 12:52:36;;;;;;;8.38;1.85;;;;;;;;;;5068125;28;20048;-79
2021/04/02 12:55:04;;;;;;;9.68;1.92;;;;;;;;;;5072063;28;20529;-79
2021/04/02 12:57:30;;;;;;;10.85;1.65;;;;;;;;;;5064564;28;20049;-79
2021/04/02 12:59:56;;;;;;;8.52;1.58;;;;;;;;;;5065448;28;20063;-78
2021/04/02 13:02:23;;;;;;;13.68;2.05;;;;;;;;;;5065700;28;20359;-78
2021/04/02 13:04:52;;;;;;;13.98;3.63;;;;;;;;;;5061989;28;20055;-80
2021/04/02 13:07:20;;;;;;;12.57;3.67;;;;;;;;;;5054222;28;20098;-80
2021/04/02 13:09:46;;;;;;;15.75;2.45;;;;;;;;;;5074508;28;20044;-80
2021/04/02 13:12:15;;;;;;;10.45;2.13;;;;;;;;;;5074231;28;20260;-80
2021/04/02 13:14:43;;;;;;;13.38;2.03;;;;;;;;;;5057681;28;20040;-80
2021/04/02 13:17:12;;;;;;;8.40;1.67;;;;;;;;;;5073001;28;20098;-80
2021/04/02 13:19:42;;;;;;;7.53;1.70;;;;;;;;;;5060652;28;20108;-80
2021/04/02 13:22:10;;;;;;;8.73;1.70;;;;;;;;;;5081484;28;20052;-81
2021/04/02 13:24:38;;;;;;;7.72;1.77;;;;;;;;;;5064684;28;20583;-83
2021/04/02 13:27:08;;;;;;;12.82;2.45;;;;;;;;;;5059770;28;20407;-81
2021/04/02 13:29:34;;;;;;;8.98;1.40;;;;;;;;;;5076003;28;20125;-81
2021/04/02 13:32:00;;;;;;;14.23;1.92;;;;;;;;;;5073353;28;20410;-81
2021/04/02 13:34:53;;;;;;;13.35;3.22;;;;;;;;;;5076282;28;20075;-81
2021/04/02 13:37:19;;;;;;;14.43;2.20;;;;;;;;;;5050411;28;20167;-81
2021/04/02 13:39:44;;;;;;;12.30;2.85;;;;;;;;;;5057832;28;20056;-81
2021/04/02 13:42:10;;;;;;;18.67;3.50;;;;;;;;;;5039625;28;20074;-83
2021/04/02 13:44:48;;;;;;;14.55;4.65;;;;;;;;;;5052533;28;20059;-82
2021/04/02 13:47:14;;;;;;;11.10;2.67;;;;;;;;;;5075231;28;20192;-82
2021/04/02 13:49:40;;;;;;;12.48;2.88;;;;;;;;;;5075558;28;20478;-83
2021/04/02 13:52:13;;;;;;;15.65;4.43;;;;;;;;;;5060749;28;20111;-83
2021/04/02 13:54:43;;;;;;;21.67;3.95;;;;;;;;;;5072547;28;20048;-80
2021/04/02 13:57:09;;;;;;;20.63;5.63;;;;;;;;;;5058132;28;20147;-80
2021/04/02 13:59:35;;;;;;;13.63;3.22;;;;;;;;;;5061220;28;20108;-81
2021/04/02 14:02:08;;;;;;;15.25;3.08;;;;;;;;;;5059747;28;20106;-80
2021/04/02 14:04:38;;;;;;;11.35;2.03;;;;;;;;;;5056821;28;20339;-81
2021/04/02 14:07:05;;;;;;;16.75;2.13;;;;;;;;;;5057309;28;20057;-81
2021/04/02 14:13:10;;;;;;;13.75;2.58;;;;;;;;;;5088512;28;20035;-84
2021/04/02 14:15:41;;;;;;;10.80;2.08;;;;;;;;;;5075151;28;20360;-84
2021/04/02 14:18:11;;;;;;;11.73;2.30;;;;;;;;;;5071519;28;20048;-83
2021/04/02 14:20:38;;;;;;;9.15;1.67;;;;;;;;;;5056607;28;20387;-83
2021/04/02 14:23:25;;;;;;;15.13;2.10;;;;;;;;;;5076195;28;20048;-83
2021/04/02 14:25:51;;;;;;;6.85;1.52;;;;;;;;;;5080374;28;20614;-82
2021/04/02 14:28:17;;;;;;;9.48;1.75;;;;;;;;;;5075374;28;20145;-83
2021/04/02 14:30:46;;;;;;;12.45;2.10;;;;;;;;;;5063888;28;20168;-82
2021/04/02 14:33:14;;;;;;;10.50;1.92;;;;;;;;;;5042517;28;20055;-81
2021/04/02 14:35:42;;;;;;;14.75;2.75;;;;;;;;;;5063096;28;20055;-82
2021/04/02 14:38:10;;;;;;;14.75;2.42;;;;;;;;;;5064867;28;20299;-81
2021/04/02 14:40:41;;;;;;;13.65;2.22;;;;;;;;;;5068409;28;20264;-81
2021/04/02 14:43:07;;;;;;;11.57;2.20;;;;;;;;;;5072511;28;20071;-82
2021/04/02 14:45:34;;;;;;;7.82;2.40;;;;;;;;;;5073854;28;20350;-82